createdAt,value
2022-07-29T00:00:09.412Z,100.00
2022-07-29T00:02:38.617Z,100.00
2022-07-29T00:05:08.317Z,100.00
2022-07-29T00:07:37.595Z,100.00
2022-07-29T00:10:07.076Z,100.00
2022-07-29T00:12:36.878Z,100.00
2022-07-29T00:15:09.328Z,100.00
2022-07-29T00:17:38.395Z,100.00
2022-07-29T00:20:08.772Z,100.00
2022-07-29T00:22:39.805Z,100.00
2022-07-29T00:25:09.815Z,100.00
2022-07-29T00:27:39.236Z,100.00
2022-07-29T00:30:10.731Z,100.00
2022-07-29T00:32:39.735Z,99.39
2022-07-29T00:38:03.917Z,100.00
2022-07-29T00:40:33.111Z,100.00
2022-07-29T00:43:02.906Z,100.00
2022-07-29T00:45:32.234Z,100.00
2022-07-29T00:48:01.199Z,100.00
2022-07-29T00:50:30.575Z,100.00
2022-07-29T00:52:59.997Z,100.00
2022-07-29T00:55:31.644Z,100.00
2022-07-29T00:58:01.495Z,100.00
2022-07-29T01:00:32.029Z,100.00
2022-07-29T01:03:01.094Z,100.00
2022-07-29T01:05:50.682Z,100.00
2022-07-29T01:08:22.411Z,100.00
2022-07-29T01:10:54.735Z,100.00
2022-07-29T01:13:24.463Z,100.00
2022-07-29T01:16:01.410Z,100.00
2022-07-29T01:18:34.238Z,100.00
2022-07-29T01:21:27.319Z,100.00
2022-07-29T01:24:24.744Z,100.00
2022-07-29T01:27:01.312Z,100.00
2022-07-29T01:29:40.316Z,100.00
2022-07-29T01:32:27.903Z,100.00
2022-07-29T01:35:04.275Z,100.00
2022-07-29T01:37:41.595Z,100.00
2022-07-29T01:40:16.619Z,100.00
2022-07-29T01:42:47.260Z,100.00
2022-07-29T01:45:21.793Z,100.00
2022-07-29T01:47:58.959Z,100.00
2022-07-29T01:50:35.271Z,100.00
2022-07-29T01:53:07.272Z,100.00
2022-07-29T01:55:40.793Z,100.00
2022-07-29T01:58:11.120Z,100.00
2022-07-29T02:00:43.873Z,100.00
2022-07-29T02:03:15.956Z,100.00
2022-07-29T02:05:49.082Z,100.00
2022-07-29T02:08:20.862Z,100.00
2022-07-29T02:10:52.156Z,100.00
2022-07-29T02:13:24.658Z,100.00
2022-07-29T02:15:56.114Z,100.00
2022-07-29T02:18:27.806Z,100.00
2022-07-29T02:20:58.739Z,100.00
2022-07-29T02:23:29.019Z,100.00
2022-07-29T02:26:00.079Z,100.00
2022-07-29T02:28:30.671Z,100.00
2022-07-29T02:31:04.479Z,100.00
2022-07-29T02:33:34.991Z,100.00
2022-07-29T02:36:05.076Z,100.00
2022-07-29T02:38:58.488Z,100.00
2022-07-29T02:41:31.118Z,100.00
2022-07-29T02:44:06.421Z,100.00
2022-07-29T02:46:38.951Z,100.00
2022-07-29T02:49:14.869Z,100.00
2022-07-29T02:51:47.512Z,100.00
2022-07-29T02:54:24.939Z,100.00
2022-07-29T02:56:56.630Z,100.00
2022-07-29T02:59:29.774Z,100.00
2022-07-29T03:02:01.333Z,100.00
2022-07-29T03:04:33.037Z,100.00
2022-07-29T03:07:04.057Z,100.00
2022-07-29T03:09:33.999Z,100.00
2022-07-29T03:12:03.803Z,100.00
2022-07-29T03:14:33.626Z,100.00
2022-07-29T03:17:05.407Z,100.00
2022-07-29T03:19:35.323Z,100.00
2022-07-29T03:22:04.791Z,100.00
2022-07-29T03:24:35.069Z,100.00
2022-07-29T03:27:05.246Z,100.00
2022-07-29T03:29:34.861Z,100.00
2022-07-29T03:32:08.877Z,100.00
2022-07-29T03:34:39.553Z,100.00
2022-07-29T03:37:09.153Z,100.00
2022-07-29T03:39:42.792Z,100.00
2022-07-29T03:42:15.930Z,100.00
2022-07-29T03:44:48.069Z,100.00
2022-07-29T03:47:21.484Z,100.00
2022-07-29T03:49:54.782Z,100.00
2022-07-29T03:52:24.114Z,100.00
2022-07-29T03:54:53.296Z,100.00
2022-07-29T03:57:26.099Z,100.00
2022-07-29T03:59:56.096Z,100.00
2022-07-29T04:02:30.724Z,100.00
2022-07-29T04:05:00.331Z,100.00
2022-07-29T04:07:30.174Z,100.00
2022-07-29T04:09:59.277Z,100.00
2022-07-29T04:12:28.245Z,100.00
2022-07-29T04:14:57.222Z,100.00
2022-07-29T04:17:27.550Z,100.00
2022-07-29T04:19:56.561Z,100.00
2022-07-29T04:22:25.555Z,100.00
2022-07-29T04:24:59.098Z,100.00
2022-07-29T04:27:32.494Z,100.00
2022-07-29T04:30:01.631Z,100.00
2022-07-29T04:32:32.319Z,100.00
2022-07-29T04:35:01.440Z,100.00
2022-07-29T04:37:30.371Z,100.00
2022-07-29T04:39:59.360Z,100.00
2022-07-29T04:42:29.271Z,100.00
2022-07-29T04:44:58.579Z,100.00
2022-07-29T04:47:31.804Z,100.00
2022-07-29T04:50:00.871Z,100.00
2022-07-29T04:52:29.799Z,100.00
2022-07-29T04:54:58.754Z,100.00
2022-07-29T04:57:27.757Z,97.73
2022-07-29T04:59:56.698Z,98.27
2022-07-29T05:02:25.710Z,97.41
2022-07-29T05:04:56.073Z,93.01
2022-07-29T05:07:25.038Z,89.96
2022-07-29T05:09:54.243Z,87.25
2022-07-29T05:12:23.301Z,85.68
2022-07-29T05:14:52.250Z,86.97
2022-07-29T05:17:21.313Z,84.97
2022-07-29T05:19:52.276Z,86.80
2022-07-29T05:22:23.386Z,91.51
2022-07-29T05:24:52.361Z,84.47
2022-07-29T05:27:21.270Z,85.69
2022-07-29T05:29:50.291Z,84.16
2022-07-29T05:32:19.230Z,87.34
2022-07-29T05:34:51.024Z,83.82
2022-07-29T05:37:22.740Z,79.57
2022-07-29T05:39:56.532Z,77.63
2022-07-29T05:42:26.557Z,73.55
2022-07-29T05:44:55.684Z,72.34
2022-07-29T05:47:25.311Z,70.99
2022-07-29T05:49:55.066Z,68.63
2022-07-29T05:52:25.750Z,76.09
2022-07-29T05:54:54.735Z,75.13
2022-07-29T05:57:25.267Z,76.72
2022-07-29T05:59:54.295Z,72.27
2022-07-29T06:02:23.321Z,78.47
2022-07-29T06:04:52.375Z,77.60
2022-07-29T06:07:21.336Z,71.94
2022-07-29T06:09:51.766Z,77.99
2022-07-29T06:12:21.003Z,72.74
2022-07-29T06:14:53.980Z,67.59
2022-07-29T06:17:23.363Z,65.78
2022-07-29T06:19:52.446Z,62.98
2022-07-29T06:22:21.507Z,61.91
2022-07-29T06:24:52.160Z,57.76
2022-07-29T06:27:21.106Z,56.77
2022-07-29T06:29:50.094Z,61.13
2022-07-29T06:32:20.170Z,60.89
2022-07-29T06:34:52.370Z,60.57
2022-07-29T06:37:21.715Z,57.07
2022-07-29T06:40:13.293Z,57.22
2022-07-29T06:42:44.739Z,58.62
2022-07-29T06:45:14.234Z,59.60
2022-07-29T06:47:43.153Z,55.23
2022-07-29T06:50:13.507Z,53.66
2022-07-29T06:52:42.986Z,52.40
2022-07-29T06:55:13.454Z,52.15
2022-07-29T06:57:54.476Z,50.54
2022-07-29T07:00:23.566Z,51.21
2022-07-29T07:02:52.641Z,50.65
2022-07-29T07:05:21.740Z,47.42
2022-07-29T07:07:50.707Z,47.35
2022-07-29T07:10:21.253Z,46.45
2022-07-29T07:12:50.481Z,46.86
2022-07-29T07:15:22.838Z,45.03
2022-07-29T07:18:08.334Z,46.00
2022-07-29T07:20:38.518Z,45.09
2022-07-29T07:23:07.549Z,44.98
2022-07-29T07:25:37.962Z,45.95
2022-07-29T07:28:08.217Z,46.60
2022-07-29T07:30:37.418Z,44.75
2022-07-29T07:33:06.814Z,47.18
2022-07-29T07:35:35.947Z,47.99
2022-07-29T07:38:06.941Z,46.94
2022-07-29T07:40:37.329Z,46.81
2022-07-29T07:43:06.483Z,45.38
2022-07-29T07:45:35.482Z,44.56
2022-07-29T07:48:04.592Z,44.09
2022-07-29T07:50:33.502Z,42.30
2022-07-29T07:53:03.256Z,42.73
2022-07-29T07:55:53.441Z,44.62
2022-07-29T07:58:23.137Z,41.38
2022-07-29T08:00:52.349Z,41.26
2022-07-29T08:03:21.307Z,40.57
2022-07-29T08:05:52.090Z,39.58
2022-07-29T08:08:21.135Z,40.10
2022-07-29T08:10:57.057Z,41.28
2022-07-29T08:13:31.139Z,40.95
2022-07-29T08:16:02.206Z,40.90
2022-07-29T08:18:32.995Z,39.43
2022-07-29T08:21:02.131Z,40.10
2022-07-29T08:23:45.488Z,41.41
2022-07-29T08:26:15.617Z,40.54
2022-07-29T08:28:47.320Z,38.76
2022-07-29T08:31:16.636Z,38.34
2022-07-29T08:33:45.910Z,39.20
2022-07-29T08:36:15.346Z,39.84
2022-07-29T08:38:44.262Z,41.78
2022-07-29T08:41:13.299Z,42.02
2022-07-29T08:43:42.912Z,39.47
2022-07-29T08:46:13.365Z,36.27
2022-07-29T08:48:43.543Z,35.76
2022-07-29T08:51:17.124Z,37.13
2022-07-29T08:53:48.478Z,35.29
2022-07-29T08:56:19.136Z,37.78
2022-07-29T08:58:52.043Z,36.49
2022-07-29T09:01:34.960Z,37.99
2022-07-29T09:04:08.228Z,36.85
2022-07-29T09:06:41.489Z,35.84
2022-07-29T09:09:10.876Z,35.60
2022-07-29T09:11:39.916Z,34.51
2022-07-29T09:14:09.383Z,35.62
2022-07-29T09:17:01.002Z,36.09
2022-07-29T09:19:32.638Z,34.40
2022-07-29T09:22:04.077Z,36.06
2022-07-29T09:24:41.842Z,36.07
2022-07-29T09:27:22.810Z,36.60
2022-07-29T09:29:59.718Z,35.07
2022-07-29T09:32:30.662Z,35.37
2022-07-29T09:35:20.211Z,35.22
2022-07-29T09:37:50.183Z,33.64
2022-07-29T09:40:21.590Z,33.57
2022-07-29T09:42:59.361Z,34.73
2022-07-29T09:45:31.089Z,33.55
2022-07-29T09:48:14.768Z,32.20
2022-07-29T09:50:45.898Z,30.32
2022-07-29T09:53:33.511Z,30.10
2022-07-29T09:56:02.843Z,28.28
2022-07-29T09:58:31.822Z,29.90
2022-07-29T10:01:00.921Z,32.27
2022-07-29T10:03:31.385Z,30.83
2022-07-29T10:06:11.867Z,35.76
2022-07-29T10:08:40.909Z,33.92
2022-07-29T10:11:14.515Z,33.05
2022-07-29T10:13:44.802Z,33.09
2022-07-29T10:16:15.010Z,33.35
2022-07-29T10:18:47.885Z,34.86
2022-07-29T10:21:35.197Z,32.95
2022-07-29T10:24:07.105Z,32.12
2022-07-29T10:26:45.762Z,31.22
2022-07-29T10:29:15.109Z,33.82
2022-07-29T10:31:52.307Z,32.99
2022-07-29T10:34:31.942Z,33.50
2022-07-29T10:37:10.858Z,31.46
2022-07-29T10:39:55.337Z,28.34
2022-07-29T10:42:34.057Z,27.14
2022-07-29T10:45:05.846Z,27.82
2022-07-29T10:47:35.520Z,28.44
2022-07-29T10:50:07.713Z,28.23
2022-07-29T10:52:57.678Z,28.61
2022-07-29T10:55:37.782Z,28.46
2022-07-29T10:58:18.954Z,29.23
2022-07-29T11:00:49.690Z,27.48
2022-07-29T11:03:50.391Z,26.65
2022-07-29T11:09:25.806Z,26.71
2022-07-29T11:12:04.589Z,30.55
2022-07-29T11:15:00.329Z,30.58
2022-07-29T11:17:46.997Z,29.22
2022-07-29T11:20:37.762Z,28.01
2022-07-29T11:23:27.516Z,26.11
2022-07-29T11:26:18.609Z,26.82
2022-07-29T11:29:00.955Z,28.78
2022-07-29T11:31:42.776Z,28.49
2022-07-29T11:34:23.232Z,27.20
2022-07-29T11:37:15.760Z,26.41
2022-07-29T11:39:50.948Z,27.59
2022-07-29T11:42:44.602Z,27.16
2022-07-29T11:45:44.461Z,27.99
2022-07-29T11:48:31.410Z,27.94
2022-07-29T11:50:58.288Z,27.04
2022-07-29T11:53:29.216Z,24.41
2022-07-29T11:56:03.776Z,23.46
2022-07-29T11:58:33.739Z,25.34
2022-07-29T12:01:04.932Z,26.53
2022-07-29T12:03:36.984Z,25.35
2022-07-29T12:06:15.053Z,25.25
2022-07-29T12:08:45.396Z,25.45
2022-07-29T12:11:21.633Z,24.92
2022-07-29T12:13:51.623Z,26.92
2022-07-29T12:16:26.080Z,25.91
2022-07-29T12:18:59.940Z,24.98
2022-07-29T12:21:29.483Z,25.25
2022-07-29T12:24:05.821Z,23.75
2022-07-29T12:26:51.999Z,23.55
2022-07-29T12:29:33.927Z,24.38
2022-07-29T12:32:14.921Z,24.79
2022-07-29T12:34:49.006Z,25.13
2022-07-29T12:37:18.278Z,24.41
2022-07-29T12:39:47.380Z,24.91
2022-07-29T12:42:19.184Z,25.39
2022-07-29T12:44:49.660Z,24.49
2022-07-29T12:47:20.285Z,25.45
2022-07-29T12:49:50.416Z,24.92
2022-07-29T12:52:26.615Z,25.32
2022-07-29T12:54:56.074Z,24.83
2022-07-29T12:57:26.952Z,24.54
2022-07-29T13:00:11.685Z,23.33
2022-07-29T13:02:42.479Z,24.08
2022-07-29T13:05:13.721Z,24.32
2022-07-29T13:07:54.964Z,23.68
2022-07-29T13:10:26.985Z,23.60
2022-07-29T13:13:09.210Z,24.59
2022-07-29T13:15:39.165Z,24.79
2022-07-29T13:18:28.772Z,25.16
2022-07-29T13:20:58.712Z,25.21
2022-07-29T13:23:27.713Z,23.99
2022-07-29T13:25:56.848Z,22.33
2022-07-29T13:28:27.319Z,22.74
2022-07-29T13:30:56.501Z,21.96
2022-07-29T13:33:25.490Z,22.46
2022-07-29T13:35:54.622Z,24.47
2022-07-29T13:38:23.648Z,25.37
2022-07-29T13:41:00.376Z,23.75
2022-07-29T13:43:30.752Z,25.31
2022-07-29T13:45:59.780Z,24.20
2022-07-29T13:48:28.799Z,23.58
2022-07-29T13:50:58.968Z,24.03
2022-07-29T13:53:28.951Z,24.03
2022-07-29T13:55:58.057Z,24.39
2022-07-29T13:58:26.970Z,23.99
2022-07-29T14:00:58.162Z,23.13
2022-07-29T14:03:27.357Z,22.68
2022-07-29T14:05:57.329Z,21.22
2022-07-29T14:08:26.362Z,21.43
2022-07-29T14:10:55.293Z,22.95
2022-07-29T14:13:26.363Z,24.73
2022-07-29T14:15:55.567Z,24.50
2022-07-29T14:18:25.927Z,25.68
2022-07-29T14:20:55.098Z,24.58
2022-07-29T14:23:24.262Z,24.85
2022-07-29T14:25:55.468Z,25.27
2022-07-29T14:28:24.987Z,24.77
2022-07-29T14:30:54.054Z,24.11
2022-07-29T14:33:22.982Z,24.69
2022-07-29T14:35:53.413Z,24.89
2022-07-29T14:38:22.369Z,25.32
2022-07-29T14:40:56.074Z,24.54
2022-07-29T14:43:25.043Z,26.28
2022-07-29T14:45:57.269Z,27.30
2022-07-29T14:48:30.533Z,26.55
2022-07-29T14:51:04.554Z,26.25
2022-07-29T14:53:34.438Z,25.96
2022-07-29T14:56:33.921Z,25.31
2022-07-29T14:58:52.514Z,25.36
2022-07-29T15:01:21.515Z,25.49
2022-07-29T15:03:51.545Z,25.90
2022-07-29T15:06:21.895Z,26.24
2022-07-29T15:08:50.919Z,26.50
2022-07-29T15:11:19.957Z,25.83
2022-07-29T15:13:49.270Z,26.55
2022-07-29T15:16:18.283Z,25.31
2022-07-29T15:18:47.280Z,25.88
2022-07-29T15:21:16.520Z,25.10
2022-07-29T15:23:47.213Z,25.07
2022-07-29T15:26:16.448Z,25.05
2022-07-29T15:28:45.396Z,25.88
2022-07-29T15:31:15.028Z,26.93
2022-07-29T15:33:43.984Z,27.12
2022-07-29T15:36:25.412Z,27.00
2022-07-29T15:39:03.921Z,27.07
2022-07-29T15:41:33.133Z,27.74
2022-07-29T15:44:02.097Z,28.06
2022-07-29T15:46:48.957Z,27.97
2022-07-29T15:49:17.980Z,27.62
2022-07-29T15:51:46.948Z,28.36
2022-07-29T15:54:17.710Z,28.53
2022-07-29T15:56:46.654Z,28.08
2022-07-29T15:59:22.488Z,28.31
2022-07-29T16:01:51.750Z,28.49
2022-07-29T16:04:21.213Z,28.65
2022-07-29T16:06:50.907Z,28.45
2022-07-29T16:09:21.677Z,28.14
2022-07-29T16:11:51.105Z,29.20
2022-07-29T16:14:20.352Z,28.16
2022-07-29T16:16:49.573Z,27.51
2022-07-29T16:19:18.559Z,26.83
2022-07-29T16:21:47.576Z,26.88
2022-07-29T16:24:16.715Z,26.43
2022-07-29T16:26:47.283Z,26.79
2022-07-29T16:29:18.222Z,26.81
2022-07-29T16:31:47.340Z,26.05
2022-07-29T16:34:16.351Z,26.02
2022-07-29T16:36:47.881Z,26.67
2022-07-29T16:39:17.118Z,26.23
2022-07-29T16:41:47.575Z,26.01
2022-07-29T16:44:16.550Z,26.94
2022-07-29T16:46:47.210Z,27.38
2022-07-29T16:49:19.445Z,26.83
2022-07-29T16:51:48.962Z,27.01
2022-07-29T16:54:18.360Z,26.96
2022-07-29T16:56:48.767Z,27.27
2022-07-29T16:59:17.815Z,27.13
2022-07-29T17:01:46.875Z,27.31
2022-07-29T17:04:16.330Z,28.41
2022-07-29T17:06:45.253Z,29.10
2022-07-29T17:09:16.099Z,28.80
2022-07-29T17:11:53.833Z,29.32
2022-07-29T17:14:27.364Z,29.54
2022-07-29T17:17:00.592Z,28.62
2022-07-29T17:19:32.295Z,28.72
2022-07-29T17:22:09.414Z,29.77
2022-07-29T17:24:41.212Z,30.23
2022-07-29T17:27:10.485Z,32.68
2022-07-29T17:29:40.939Z,34.33
2022-07-29T17:32:11.340Z,34.26
2022-07-29T17:34:41.683Z,34.56
2022-07-29T17:37:12.333Z,35.05
2022-07-29T17:39:42.570Z,36.17
2022-07-29T17:42:13.331Z,36.13
2022-07-29T17:44:43.751Z,36.45
2022-07-29T17:47:15.842Z,36.53
2022-07-29T17:49:45.566Z,37.14
2022-07-29T17:52:15.967Z,36.97
2022-07-29T17:54:44.925Z,37.54
2022-07-29T17:57:14.039Z,37.26
2022-07-29T17:59:44.481Z,36.80
2022-07-29T18:02:14.505Z,37.19
2022-07-29T18:04:43.683Z,37.11
2022-07-29T18:07:12.741Z,37.06
2022-07-29T18:09:41.797Z,36.87
2022-07-29T18:12:11.585Z,36.92
2022-07-29T18:14:40.660Z,37.13
2022-07-29T18:17:11.022Z,36.98
2022-07-29T18:19:40.106Z,36.85
2022-07-29T18:22:11.504Z,37.26
2022-07-29T18:24:40.585Z,38.20
2022-07-29T18:27:09.945Z,38.12
2022-07-29T18:29:38.975Z,38.19
2022-07-29T18:32:08.384Z,38.08
2022-07-29T18:34:38.693Z,38.45
2022-07-29T18:37:07.866Z,39.17
2022-07-29T18:39:36.860Z,39.43
2022-07-29T18:42:06.286Z,39.70
2022-07-29T18:44:41.585Z,39.32
2022-07-29T18:47:13.000Z,39.44
2022-07-29T18:49:43.729Z,38.95
2022-07-29T18:52:12.732Z,38.77
2022-07-29T18:54:41.778Z,39.49
2022-07-29T18:57:56.034Z,39.85
2022-07-29T18:59:59.969Z,40.25
2022-07-29T19:02:29.318Z,41.35
2022-07-29T19:05:00.115Z,42.22
2022-07-29T19:07:30.038Z,42.20
2022-07-29T19:09:58.938Z,42.63
2022-07-29T19:12:27.995Z,42.20
2022-07-29T19:14:56.989Z,43.04
2022-07-29T19:17:26.118Z,44.07
2022-07-29T19:19:55.111Z,44.24
2022-07-29T19:22:25.692Z,43.21
2022-07-29T19:24:54.822Z,43.97
2022-07-29T19:27:24.074Z,44.37
2022-07-29T19:29:55.803Z,45.04
2022-07-29T19:32:28.321Z,44.49
2022-07-29T19:35:14.490Z,44.65
2022-07-29T19:37:44.928Z,44.44
2022-07-29T19:40:14.124Z,45.36
2022-07-29T19:42:43.224Z,44.65
2022-07-29T19:45:13.053Z,45.37
2022-07-29T19:47:42.014Z,44.92
2022-07-29T19:50:11.756Z,45.32
2022-07-29T19:52:40.750Z,45.87
2022-07-29T19:55:12.099Z,47.22
2022-07-29T19:57:41.964Z,45.72
2022-07-29T20:00:12.285Z,46.98
2022-07-29T20:02:42.876Z,45.58
2022-07-29T20:05:12.796Z,47.74
2022-07-29T20:07:41.768Z,47.26
2022-07-29T20:10:12.775Z,46.58
2022-07-29T20:12:42.775Z,46.50
2022-07-29T20:15:16.327Z,46.34
2022-07-29T20:17:45.792Z,44.98
2022-07-29T20:20:14.719Z,45.25
2022-07-29T20:22:44.376Z,44.32
2022-07-29T20:25:15.508Z,44.72
2022-07-29T20:27:44.780Z,44.66
2022-07-29T20:30:14.512Z,44.17
2022-07-29T20:32:43.623Z,44.52
2022-07-29T20:35:13.493Z,44.04
2022-07-29T20:37:55.928Z,44.26
2022-07-29T20:40:27.646Z,43.40
2022-07-29T20:42:57.075Z,43.36
2022-07-29T20:45:26.321Z,43.74
2022-07-29T20:47:55.338Z,42.60
2022-07-29T20:50:24.886Z,41.91
2022-07-29T20:52:54.057Z,42.16
2022-07-29T20:55:23.041Z,44.04
2022-07-29T20:57:53.538Z,43.94
2022-07-29T21:00:22.615Z,44.22
2022-07-29T21:02:51.790Z,44.02
2022-07-29T21:05:21.031Z,43.67
2022-07-29T21:07:49.965Z,44.88
2022-07-29T21:10:19.075Z,44.96
2022-07-29T21:12:48.153Z,46.03
2022-07-29T21:15:20.828Z,46.45
2022-07-29T21:17:52.030Z,47.33
2022-07-29T21:20:21.209Z,48.18
2022-07-29T21:22:56.607Z,48.53
2022-07-29T21:25:27.041Z,48.12
2022-07-29T21:28:13.623Z,49.10
2022-07-29T21:30:44.050Z,48.66
2022-07-29T21:33:13.104Z,50.10
2022-07-29T21:36:06.270Z,49.54
2022-07-29T21:38:32.326Z,50.25
2022-07-29T21:41:01.324Z,49.07
2022-07-29T21:43:30.434Z,48.28
2022-07-29T21:46:01.240Z,46.98
2022-07-29T21:48:30.627Z,46.70
2022-07-29T21:50:59.796Z,46.37
2022-07-29T21:53:29.017Z,46.46
2022-07-29T21:55:59.879Z,46.15
2022-07-29T21:58:28.779Z,45.03
2022-07-29T22:00:57.999Z,45.56
2022-07-29T22:03:28.569Z,45.69
2022-07-29T22:05:57.569Z,45.73
2022-07-29T22:08:26.589Z,45.51
2022-07-29T22:10:55.595Z,45.53
2022-07-29T22:13:24.524Z,45.84
2022-07-29T22:15:53.643Z,47.12
2022-07-29T22:18:22.545Z,47.51
2022-07-29T22:20:52.937Z,47.15
2022-07-29T22:23:22.032Z,48.57
2022-07-29T22:25:51.076Z,48.01
2022-07-29T22:28:20.302Z,47.50
2022-07-29T22:30:49.378Z,48.73
2022-07-29T22:33:18.435Z,47.98
2022-07-29T22:35:49.028Z,47.20
2022-07-29T22:38:19.656Z,47.86
2022-07-29T22:40:50.656Z,47.95
2022-07-29T22:43:19.991Z,48.00
2022-07-29T22:45:49.047Z,47.07
2022-07-29T22:48:18.151Z,48.47
2022-07-29T22:50:47.082Z,49.58
2022-07-29T22:53:16.143Z,49.56
2022-07-29T22:55:46.621Z,50.02
2022-07-29T22:58:15.717Z,48.92
2022-07-29T23:00:44.630Z,48.62
2022-07-29T23:03:13.784Z,48.45
2022-07-29T23:05:42.790Z,47.80
2022-07-29T23:08:11.779Z,47.82
2022-07-29T23:10:40.907Z,47.55
2022-07-29T23:13:11.760Z,47.61
2022-07-29T23:15:40.830Z,48.57
2022-07-29T23:18:09.863Z,49.18
2022-07-29T23:20:38.897Z,49.57
2022-07-29T23:23:07.866Z,48.91
2022-07-29T23:25:37.117Z,49.70
2022-07-29T23:28:06.443Z,50.10
2022-07-29T23:30:42.270Z,50.78
2022-07-29T23:33:11.309Z,50.89
2022-07-29T23:35:40.251Z,51.01
2022-07-29T23:38:09.400Z,51.57
2022-07-29T23:40:38.440Z,50.55
2022-07-29T23:43:09.009Z,50.50
2022-07-29T23:45:42.669Z,50.14
2022-07-29T23:48:15.793Z,51.06
2022-07-29T23:50:44.847Z,50.40
2022-07-29T23:53:13.887Z,49.34
2022-07-29T23:55:42.976Z,49.47
2022-07-29T23:58:12.085Z,51.38
